Time;durP1;ratioP1;P1;durP2;ratioP2;P2;SDS_P1;SDS_P2;PMS_P1;PMS_P2;Temp;Humidity;BMP_temperature;BMP_pressure;BME280_temperature;BME280_humidity;BME280_pressure;Samples;Min_cycle;Max_cycle;Signal;HPM_P1;HPM_P2
2023/12/26 00:02:19;;;;;;;2.10;1.50;;;;;;;;;;5043981;28;20071;-63
2023/12/26 00:04:45;;;;;;;2.22;1.70;;;;;;;;;;5044306;28;20044;-63
2023/12/26 00:07:11;;;;;;;1.48;1.38;;;;;;;;;;5044316;28;20462;-63
2023/12/26 00:09:40;;;;;;;1.90;1.15;;;;;;;;;;5044627;28;20481;-63
2023/12/26 00:12:07;;;;;;;1.58;1.00;;;;;;;;;;5043743;28;20112;-63
2023/12/26 00:14:33;;;;;;;1.10;1.00;;;;;;;;;;5042304;28;20045;-63
2023/12/26 00:16:59;;;;;;;1.50;1.23;;;;;;;;;;5044585;28;20045;-63
2023/12/26 00:19:25;;;;;;;2.92;0.98;;;;;;;;;;5042040;28;20080;-63
2023/12/26 00:21:51;;;;;;;2.22;0.77;;;;;;;;;;5042724;28;20039;-63
2023/12/26 00:24:17;;;;;;;1.38;0.75;;;;;;;;;;5043087;28;20116;-63
2023/12/26 00:26:43;;;;;;;1.35;0.95;;;;;;;;;;5043049;28;20487;-63
2023/12/26 00:29:09;;;;;;;1.08;0.93;;;;;;;;;;5042904;28;20055;-63
2023/12/26 00:31:39;;;;;;;1.30;0.88;;;;;;;;;;5043540;28;20041;-63
2023/12/26 00:34:05;;;;;;;1.20;0.60;;;;;;;;;;5042234;28;20416;-63
2023/12/26 00:36:31;;;;;;;1.20;0.77;;;;;;;;;;5040719;28;20033;-63
2023/12/26 00:38:57;;;;;;;0.63;0.50;;;;;;;;;;5041449;28;20037;-63
2023/12/26 00:41:23;;;;;;;0.50;0.50;;;;;;;;;;5043624;28;20045;-63
2023/12/26 00:43:51;;;;;;;1.30;0.55;;;;;;;;;;5040260;28;20562;-63
2023/12/26 00:46:18;;;;;;;4.95;1.48;;;;;;;;;;5040640;28;20182;-63
2023/12/26 00:48:44;;;;;;;1.15;0.50;;;;;;;;;;5044117;28;20098;-63
2023/12/26 00:51:10;;;;;;;0.80;0.70;;;;;;;;;;5041421;28;20088;-63
2023/12/26 00:53:36;;;;;;;1.23;0.75;;;;;;;;;;5043672;28;20060;-63
2023/12/26 00:56:02;;;;;;;0.85;0.45;;;;;;;;;;5041739;28;20041;-63
2023/12/26 00:58:28;;;;;;;1.73;0.75;;;;;;;;;;5043824;28;20131;-63
2023/12/26 01:00:54;;;;;;;1.50;0.57;;;;;;;;;;5041847;28;20059;-63
2023/12/26 01:03:23;;;;;;;1.98;0.82;;;;;;;;;;5041379;28;20056;-63
2023/12/26 01:05:50;;;;;;;1.30;0.60;;;;;;;;;;5039734;28;20091;-63
2023/12/26 01:08:16;;;;;;;1.98;0.70;;;;;;;;;;5042364;28;20037;-64
2023/12/26 01:10:42;;;;;;;3.80;0.95;;;;;;;;;;5042439;28;20132;-63
2023/12/26 01:13:09;;;;;;;3.88;0.90;;;;;;;;;;5041841;28;20132;-63
2023/12/26 01:15:35;;;;;;;1.70;0.70;;;;;;;;;;5042883;28;20047;-64
2023/12/26 01:18:01;;;;;;;1.85;0.73;;;;;;;;;;5042080;28;20037;-64
2023/12/26 01:20:27;;;;;;;1.33;0.57;;;;;;;;;;5043602;28;20044;-63
2023/12/26 01:22:53;;;;;;;2.63;0.80;;;;;;;;;;5042612;28;20040;-63
2023/12/26 01:25:19;;;;;;;2.95;0.82;;;;;;;;;;5041238;28;20105;-63
2023/12/26 01:27:45;;;;;;;2.80;0.80;;;;;;;;;;5043869;28;20040;-63
2023/12/26 01:30:11;;;;;;;4.82;0.60;;;;;;;;;;5041136;28;20044;-63
2023/12/26 01:32:37;;;;;;;8.38;1.35;;;;;;;;;;5043297;28;20144;-63
2023/12/26 01:35:03;;;;;;;4.20;0.98;;;;;;;;;;5042214;28;20214;-63
2023/12/26 01:37:29;;;;;;;4.72;1.10;;;;;;;;;;5040073;28;20138;-63
2023/12/26 01:39:55;;;;;;;3.30;1.13;;;;;;;;;;5042709;28;20527;-63
2023/12/26 01:42:22;;;;;;;5.30;1.35;;;;;;;;;;5043912;28;20033;-63
2023/12/26 01:44:48;;;;;;;4.00;1.17;;;;;;;;;;5041776;28;20057;-63
2023/12/26 01:47:18;;;;;;;2.67;1.05;;;;;;;;;;5041795;28;20045;-63
2023/12/26 01:49:44;;;;;;;15.52;2.58;;;;;;;;;;5042153;28;20045;-63
2023/12/26 01:52:11;;;;;;;4.00;1.20;;;;;;;;;;5041936;28;20049;-63
2023/12/26 01:54:37;;;;;;;5.65;1.27;;;;;;;;;;5041654;28;20061;-63
2023/12/26 01:57:06;;;;;;;4.50;1.13;;;;;;;;;;5045325;28;20068;-63
2023/12/26 01:59:32;;;;;;;5.10;1.17;;;;;;;;;;5044590;28;20045;-63
2023/12/26 02:01:58;;;;;;;2.15;0.75;;;;;;;;;;5046146;28;20086;-63
2023/12/26 02:04:24;;;;;;;5.75;0.93;;;;;;;;;;5045129;28;20523;-63
2023/12/26 02:06:51;;;;;;;2.25;0.80;;;;;;;;;;5045288;28;20531;-63
2023/12/26 02:09:17;;;;;;;5.47;1.38;;;;;;;;;;5045386;28;21899;-63
2023/12/26 02:11:43;;;;;;;3.92;1.25;;;;;;;;;;5046504;28;20083;-63
2023/12/26 02:14:09;;;;;;;3.72;1.10;;;;;;;;;;5045631;28;20052;-63
2023/12/26 02:16:36;;;;;;;5.10;1.65;;;;;;;;;;5044997;28;20045;-63
2023/12/26 02:19:02;;;;;;;6.50;1.38;;;;;;;;;;5044983;28;20056;-63
2023/12/26 02:21:28;;;;;;;6.03;1.73;;;;;;;;;;5042795;28;20669;-63
2023/12/26 02:23:54;;;;;;;3.60;1.70;;;;;;;;;;5047054;28;20047;-63
2023/12/26 02:26:22;;;;;;;7.25;1.50;;;;;;;;;;5044449;28;20037;-63
2023/12/26 02:28:49;;;;;;;6.53;1.58;;;;;;;;;;5045544;28;20106;-63
2023/12/26 02:31:16;;;;;;;8.02;1.70;;;;;;;;;;5045685;28;20044;-63
2023/12/26 02:33:45;;;;;;;11.75;3.42;;;;;;;;;;5046286;28;20079;-63
2023/12/26 02:36:11;;;;;;;1.70;1.08;;;;;;;;;;5045155;28;20048;-63
2023/12/26 02:38:37;;;;;;;4.65;1.45;;;;;;;;;;5046634;28;20124;-63
2023/12/26 02:41:04;;;;;;;6.85;1.90;;;;;;;;;;5045125;28;20048;-63
2023/12/26 02:43:30;;;;;;;10.00;2.10;;;;;;;;;;5042964;28;20111;-63
2023/12/26 02:45:56;;;;;;;5.88;1.52;;;;;;;;;;5045634;28;20041;-63
2023/12/26 02:48:22;;;;;;;8.95;2.17;;;;;;;;;;5045272;28;20048;-63
2023/12/26 02:50:48;;;;;;;8.23;2.28;;;;;;;;;;5043412;28;20045;-63
2023/12/26 02:53:14;;;;;;;11.30;1.98;;;;;;;;;;5045553;28;20044;-63
2023/12/26 02:55:41;;;;;;;8.02;1.80;;;;;;;;;;5044993;28;20141;-63
2023/12/26 02:58:07;;;;;;;5.93;1.50;;;;;;;;;;5044121;28;20035;-63
2023/12/26 03:00:33;;;;;;;4.88;1.67;;;;;;;;;;5046630;28;20156;-63
2023/12/26 03:02:59;;;;;;;12.98;1.88;;;;;;;;;;5045807;28;20052;-63
2023/12/26 03:05:25;;;;;;;9.32;2.28;;;;;;;;;;5045074;28;20041;-63
2023/12/26 03:07:51;;;;;;;8.05;1.88;;;;;;;;;;5045028;28;20722;-63
2023/12/26 03:10:17;;;;;;;5.63;1.42;;;;;;;;;;5043049;28;20102;-63
2023/12/26 03:12:43;;;;;;;6.18;1.65;;;;;;;;;;5045850;28;20044;-63
2023/12/26 03:15:11;;;;;;;4.75;1.27;;;;;;;;;;5045594;28;20056;-63
2023/12/26 03:17:37;;;;;;;8.13;1.77;;;;;;;;;;5044785;28;20041;-63
2023/12/26 03:20:03;;;;;;;7.43;1.88;;;;;;;;;;5046041;28;20053;-63
2023/12/26 03:22:29;;;;;;;6.82;1.60;;;;;;;;;;5045625;28;20075;-63
2023/12/26 03:24:55;;;;;;;12.45;2.55;;;;;;;;;;5043543;28;20040;-63
2023/12/26 03:27:22;;;;;;;5.07;1.50;;;;;;;;;;5043666;28;20044;-63
2023/12/26 03:29:48;;;;;;;8.75;1.50;;;;;;;;;;5045327;28;20045;-63
2023/12/26 03:32:14;;;;;;;5.45;1.23;;;;;;;;;;5044659;28;20060;-63
2023/12/26 03:34:40;;;;;;;6.28;1.77;;;;;;;;;;5043438;28;20047;-63
2023/12/26 03:37:06;;;;;;;7.13;1.67;;;;;;;;;;5044828;28;20037;-63
2023/12/26 03:39:32;;;;;;;10.60;1.98;;;;;;;;;;5042792;28;20048;-63
2023/12/26 03:41:58;;;;;;;8.95;2.30;;;;;;;;;;5045181;28;20037;-63
2023/12/26 03:44:24;;;;;;;7.25;2.00;;;;;;;;;;5043291;28;20048;-63
2023/12/26 03:46:51;;;;;;;15.52;3.20;;;;;;;;;;5044361;28;20037;-63
2023/12/26 03:49:17;;;;;;;4.72;1.58;;;;;;;;;;5043696;28;20116;-63
2023/12/26 03:51:44;;;;;;;9.68;2.20;;;;;;;;;;5045311;28;20477;-63
2023/12/26 03:54:10;;;;;;;10.75;1.95;;;;;;;;;;5043892;28;20040;-63
2023/12/26 03:56:36;;;;;;;6.53;2.05;;;;;;;;;;5044266;28;20037;-63
2023/12/26 03:59:02;;;;;;;4.97;2.08;;;;;;;;;;5044655;28;20047;-63
2023/12/26 04:01:29;;;;;;;8.00;1.73;;;;;;;;;;5043990;28;20445;-63
2023/12/26 04:03:55;;;;;;;5.95;1.77;;;;;;;;;;5042958;28;20095;-63
2023/12/26 04:06:21;;;;;;;7.03;1.85;;;;;;;;;;5043285;28;20061;-63
2023/12/26 04:08:47;;;;;;;8.95;1.83;;;;;;;;;;5041632;28;20127;-63
2023/12/26 04:11:13;;;;;;;9.77;2.60;;;;;;;;;;5043965;28;20122;-63
2023/12/26 04:13:39;;;;;;;9.05;2.40;;;;;;;;;;5042985;28;20041;-63
2023/12/26 04:16:06;;;;;;;15.48;2.45;;;;;;;;;;5044540;28;20044;-63
2023/12/26 04:18:32;;;;;;;9.45;2.97;;;;;;;;;;5041185;28;20436;-63
2023/12/26 04:20:58;;;;;;;8.63;1.90;;;;;;;;;;5041100;28;20123;-63
2023/12/26 04:23:25;;;;;;;9.88;2.13;;;;;;;;;;5041770;28;20139;-63
2023/12/26 04:25:51;;;;;;;4.38;1.33;;;;;;;;;;5044282;28;20645;-63
2023/12/26 04:28:17;;;;;;;8.95;2.10;;;;;;;;;;5042326;28;20537;-63
2023/12/26 04:30:43;;;;;;;9.98;2.42;;;;;;;;;;5042313;28;20041;-63
2023/12/26 04:33:10;;;;;;;7.70;1.75;;;;;;;;;;5039491;28;20052;-63
2023/12/26 04:35:36;;;;;;;14.15;3.70;;;;;;;;;;5043013;28;20029;-63
2023/12/26 04:38:02;;;;;;;9.30;2.40;;;;;;;;;;5044224;28;20071;-63
2023/12/26 04:40:28;;;;;;;9.40;3.08;;;;;;;;;;5040836;28;20126;-63
2023/12/26 04:42:54;;;;;;;4.80;1.67;;;;;;;;;;5040222;28;20198;-63
2023/12/26 04:45:20;;;;;;;5.75;1.75;;;;;;;;;;5041476;28;20546;-63
2023/12/26 04:47:47;;;;;;;6.43;2.03;;;;;;;;;;5040596;28;20151;-63
2023/12/26 04:50:13;;;;;;;3.92;1.63;;;;;;;;;;5042692;28;20436;-63
2023/12/26 04:52:39;;;;;;;6.72;1.52;;;;;;;;;;5042723;28;20053;-63
2023/12/26 04:55:05;;;;;;;6.03;1.88;;;;;;;;;;5043472;28;20045;-63
2023/12/26 04:57:31;;;;;;;8.15;2.10;;;;;;;;;;5044078;28;20033;-63
2023/12/26 04:59:57;;;;;;;10.95;3.53;;;;;;;;;;5043578;28;20551;-63
2023/12/26 05:02:23;;;;;;;13.15;3.20;;;;;;;;;;5042580;28;20682;-63
2023/12/26 05:04:49;;;;;;;8.13;2.42;;;;;;;;;;5042515;28;20058;-63
2023/12/26 05:07:15;;;;;;;5.43;1.50;;;;;;;;;;5041930;28;20044;-63
2023/12/26 05:09:43;;;;;;;9.30;2.38;;;;;;;;;;5042376;28;20044;-63
2023/12/26 05:12:09;;;;;;;7.75;1.58;;;;;;;;;;5040887;28;20452;-63
2023/12/26 05:14:35;;;;;;;7.25;1.63;;;;;;;;;;5042630;28;20040;-63
2023/12/26 05:17:01;;;;;;;10.32;2.08;;;;;;;;;;5041768;28;20037;-63
2023/12/26 05:19:27;;;;;;;9.00;2.33;;;;;;;;;;5040022;28;20049;-63
2023/12/26 05:21:53;;;;;;;5.25;1.98;;;;;;;;;;5042691;28;21192;-63
2023/12/26 05:24:19;;;;;;;9.93;2.42;;;;;;;;;;5040208;28;20732;-63
2023/12/26 05:26:45;;;;;;;6.88;1.75;;;;;;;;;;5042589;28;20044;-63
2023/12/26 05:29:12;;;;;;;12.02;2.88;;;;;;;;;;5043144;28;20081;-63
2023/12/26 05:31:38;;;;;;;12.02;1.90;;;;;;;;;;5043784;28;20396;-63
2023/12/26 05:34:07;;;;;;;12.50;2.60;;;;;;;;;;5047894;28;20045;-63
2023/12/26 05:36:33;;;;;;;21.48;2.47;;;;;;;;;;5047173;28;20686;-63
2023/12/26 05:39:00;;;;;;;9.30;2.17;;;;;;;;;;5044820;28;20401;-63
2023/12/26 05:41:26;;;;;;;9.95;2.10;;;;;;;;;;5046130;28;20044;-63
2023/12/26 05:43:52;;;;;;;11.50;2.45;;;;;;;;;;5045756;28;20455;-63
2023/12/26 05:46:20;;;;;;;7.28;2.47;;;;;;;;;;5045659;28;20052;-63
2023/12/26 05:48:46;;;;;;;11.63;3.00;;;;;;;;;;5043578;28;20036;-63
2023/12/26 05:51:12;;;;;;;12.50;2.95;;;;;;;;;;5046473;28;20098;-63
2023/12/26 05:53:38;;;;;;;3.85;1.23;;;;;;;;;;5044673;28;20052;-63
2023/12/26 05:56:04;;;;;;;8.00;1.75;;;;;;;;;;5047958;28;20040;-62
2023/12/26 05:58:30;;;;;;;9.77;1.85;;;;;;;;;;5043949;28;20033;-63
2023/12/26 06:00:57;;;;;;;7.28;2.13;;;;;;;;;;5043803;28;20079;-63
2023/12/26 06:03:23;;;;;;;5.30;1.58;;;;;;;;;;5045540;28;20052;-63
2023/12/26 06:05:49;;;;;;;10.45;2.03;;;;;;;;;;5047086;28;20041;-63
2023/12/26 06:08:15;;;;;;;7.32;1.50;;;;;;;;;;5044741;28;20090;-63
2023/12/26 06:10:41;;;;;;;4.20;1.40;;;;;;;;;;5047923;28;20131;-63
2023/12/26 06:13:07;;;;;;;7.50;1.73;;;;;;;;;;5045101;28;20400;-63
2023/12/26 06:15:33;;;;;;;9.30;1.90;;;;;;;;;;5045813;28;20064;-63
2023/12/26 06:17:59;;;;;;;5.38;1.52;;;;;;;;;;5047227;28;20440;-63
2023/12/26 06:20:27;;;;;;;6.10;1.77;;;;;;;;;;5045527;28;20041;-63
2023/12/26 06:22:53;;;;;;;8.73;2.22;;;;;;;;;;5046762;28;20045;-63
2023/12/26 06:25:19;;;;;;;6.65;1.90;;;;;;;;;;5044287;28;20037;-63
2023/12/26 06:27:46;;;;;;;4.75;1.20;;;;;;;;;;5044685;28;20028;-63
2023/12/26 06:30:12;;;;;;;7.47;1.90;;;;;;;;;;5047228;28;20049;-63
2023/12/26 06:32:38;;;;;;;6.55;1.75;;;;;;;;;;5045873;28;21677;-63
2023/12/26 06:35:04;;;;;;;4.25;1.13;;;;;;;;;;5046321;28;20408;-63
2023/12/26 06:37:30;;;;;;;9.98;1.90;;;;;;;;;;5046264;28;20043;-63
2023/12/26 06:39:56;;;;;;;7.50;2.08;;;;;;;;;;5043991;28;20029;-63
2023/12/26 06:42:23;;;;;;;9.05;2.13;;;;;;;;;;5044649;28;20045;-63
2023/12/26 06:44:49;;;;;;;7.43;2.50;;;;;;;;;;5043597;28;20091;-63
2023/12/26 06:47:15;;;;;;;9.02;2.53;;;;;;;;;;5044970;28;20487;-63
2023/12/26 06:49:45;;;;;;;9.57;2.13;;;;;;;;;;5045702;28;20041;-63
2023/12/26 06:52:16;;;;;;;5.15;1.83;;;;;;;;;;5046270;28;20091;-63
2023/12/26 06:54:43;;;;;;;11.30;2.13;;;;;;;;;;5044596;28;20045;-63
2023/12/26 06:57:15;;;;;;;7.70;1.83;;;;;;;;;;5045496;28;20103;-62
2023/12/26 06:59:46;;;;;;;12.35;3.05;;;;;;;;;;5045974;28;20091;-62
2023/12/26 07:02:12;;;;;;;12.65;2.35;;;;;;;;;;5045400;28;20062;-62
2023/12/26 07:04:38;;;;;;;10.18;2.58;;;;;;;;;;5044628;28;20058;-62
2023/12/26 07:07:04;;;;;;;11.30;2.20;;;;;;;;;;5042253;28;20119;-63
2023/12/26 07:09:30;;;;;;;8.27;1.77;;;;;;;;;;5042993;28;20040;-63
2023/12/26 07:11:56;;;;;;;11.85;3.22;;;;;;;;;;5046261;28;20102;-63
2023/12/26 07:14:22;;;;;;;5.60;1.55;;;;;;;;;;5043851;28;20091;-63
2023/12/26 07:16:48;;;;;;;8.63;1.40;;;;;;;;;;5043811;28;20051;-63
2023/12/26 07:19:14;;;;;;;11.10;2.50;;;;;;;;;;5045217;28;20394;-63
2023/12/26 07:21:40;;;;;;;14.20;2.03;;;;;;;;;;5044833;28;20055;-63
2023/12/26 07:24:06;;;;;;;8.32;2.65;;;;;;;;;;5042743;28;20037;-62
2023/12/26 07:26:32;;;;;;;9.27;2.08;;;;;;;;;;5046380;28;20049;-62
2023/12/26 07:28:58;;;;;;;10.65;2.28;;;;;;;;;;5044886;28;20452;-62
2023/12/26 07:31:25;;;;;;;6.97;2.70;;;;;;;;;;5041016;28;20033;-62
2023/12/26 07:33:52;;;;;;;9.27;1.92;;;;;;;;;;5076009;28;20048;-62
2023/12/26 07:36:18;;;;;;;16.58;3.78;;;;;;;;;;5045271;28;20065;-62
2023/12/26 07:38:44;;;;;;;10.60;2.35;;;;;;;;;;5041688;28;20095;-62
2023/12/26 07:41:10;;;;;;;16.65;3.33;;;;;;;;;;5043030;28;20044;-63
2023/12/26 07:43:37;;;;;;;12.73;2.60;;;;;;;;;;5043072;28;20044;-63
2023/12/26 07:46:04;;;;;;;7.35;2.38;;;;;;;;;;5040010;28;20036;-63
2023/12/26 07:48:30;;;;;;;8.85;3.17;;;;;;;;;;5040896;28;20041;-63
2023/12/26 07:50:57;;;;;;;16.23;2.75;;;;;;;;;;5043690;28;20096;-63
2023/12/26 07:53:23;;;;;;;11.63;3.10;;;;;;;;;;5040843;28;20049;-63
2023/12/26 07:55:49;;;;;;;10.27;2.58;;;;;;;;;;5042623;28;20095;-63
2023/12/26 07:58:15;;;;;;;12.38;3.65;;;;;;;;;;5040219;28;20117;-62
2023/12/26 08:00:41;;;;;;;21.23;3.40;;;;;;;;;;5041755;28;20049;-62
2023/12/26 08:03:07;;;;;;;9.32;2.40;;;;;;;;;;5043815;28;20045;-62
2023/12/26 08:05:33;;;;;;;6.93;2.15;;;;;;;;;;5043594;28;20405;-62
2023/12/26 08:07:59;;;;;;;10.35;2.40;;;;;;;;;;5041754;28;20047;-62
2023/12/26 08:10:26;;;;;;;7.85;2.10;;;;;;;;;;5042535;28;20234;-62
2023/12/26 08:12:52;;;;;;;13.13;2.92;;;;;;;;;;5043227;28;20056;-63
2023/12/26 08:15:18;;;;;;;8.73;2.08;;;;;;;;;;5045596;28;20055;-64
2023/12/26 08:17:44;;;;;;;14.27;2.42;;;;;;;;;;5043803;28;20087;-64
2023/12/26 08:20:11;;;;;;;12.65;3.38;;;;;;;;;;5044822;28;20044;-64
2023/12/26 08:22:37;;;;;;;12.95;2.28;;;;;;;;;;5045020;28;20052;-63
2023/12/26 08:25:03;;;;;;;11.40;2.80;;;;;;;;;;5044241;28;20500;-64
2023/12/26 08:27:29;;;;;;;11.40;2.97;;;;;;;;;;5044019;28;20056;-64
2023/12/26 08:29:55;;;;;;;9.63;2.15;;;;;;;;;;5045073;28;20041;-64
2023/12/26 08:32:21;;;;;;;13.05;2.13;;;;;;;;;;5044977;28;20049;-64
2023/12/26 08:34:47;;;;;;;12.50;2.92;;;;;;;;;;5042637;28;20041;-64
2023/12/26 08:37:13;;;;;;;8.77;2.40;;;;;;;;;;5042718;28;20051;-63
2023/12/26 08:39:40;;;;;;;7.60;2.10;;;;;;;;;;5041343;28;20041;-63
2023/12/26 08:42:07;;;;;;;10.25;2.08;;;;;;;;;;5042577;28;20045;-63
2023/12/26 08:44:33;;;;;;;12.98;2.25;;;;;;;;;;5041892;28;20049;-63
2023/12/26 08:47:05;;;;;;;8.88;2.20;;;;;;;;;;5043453;28;20051;-63
2023/12/26 08:49:31;;;;;;;14.75;3.10;;;;;;;;;;5043823;28;20057;-63
2023/12/26 08:51:58;;;;;;;9.45;2.35;;;;;;;;;;5042638;28;20573;-63
2023/12/26 08:54:24;;;;;;;10.02;2.42;;;;;;;;;;5043425;28;20101;-63
2023/12/26 08:56:50;;;;;;;9.45;2.17;;;;;;;;;;5043556;28;20043;-63
2023/12/26 08:59:19;;;;;;;8.30;2.10;;;;;;;;;;5042554;28;20045;-63
2023/12/26 09:01:45;;;;;;;8.93;2.53;;;;;;;;;;5042381;28;20123;-62
2023/12/26 09:04:11;;;;;;;8.52;2.00;;;;;;;;;;5040906;28;20079;-63
2023/12/26 09:06:37;;;;;;;7.82;2.13;;;;;;;;;;5041952;28;20048;-64
2023/12/26 09:09:03;;;;;;;10.27;3.45;;;;;;;;;;5043251;28;20041;-65
2023/12/26 09:11:29;;;;;;;9.77;2.67;;;;;;;;;;5040137;28;20865;-64
2023/12/26 09:13:56;;;;;;;19.27;3.13;;;;;;;;;;5041190;28;20093;-64
2023/12/26 09:16:22;;;;;;;17.80;2.67;;;;;;;;;;5039731;28;20595;-64
2023/12/26 09:18:48;;;;;;;8.35;1.92;;;;;;;;;;5042303;28;20049;-64
2023/12/26 09:21:14;;;;;;;6.55;2.33;;;;;;;;;;5041793;28;20037;-64
2023/12/26 09:23:40;;;;;;;5.75;2.40;;;;;;;;;;5039094;28;20072;-64
2023/12/26 09:26:06;;;;;;;9.77;2.42;;;;;;;;;;5041128;28;20041;-63
2023/12/26 09:28:32;;;;;;;13.13;2.88;;;;;;;;;;5043460;28;20037;-64
2023/12/26 09:30:58;;;;;;;8.75;2.22;;;;;;;;;;5043796;28;20048;-64
2023/12/26 09:33:25;;;;;;;8.98;2.40;;;;;;;;;;5041998;28;20147;-63
2023/12/26 09:35:51;;;;;;;4.50;1.90;;;;;;;;;;5040950;28;20070;-63
2023/12/26 09:38:17;;;;;;;6.28;1.60;;;;;;;;;;5040999;28;20474;-64
2023/12/26 09:40:43;;;;;;;10.45;1.73;;;;;;;;;;5043191;28;20158;-63
2023/12/26 09:43:09;;;;;;;9.50;2.25;;;;;;;;;;5040897;28;20041;-63
2023/12/26 09:45:35;;;;;;;7.68;2.20;;;;;;;;;;5042525;28;20175;-63
2023/12/26 09:48:01;;;;;;;11.20;2.50;;;;;;;;;;5041100;28;20037;-63
2023/12/26 09:50:27;;;;;;;9.77;2.53;;;;;;;;;;5037394;28;20053;-64
2023/12/26 09:53:01;;;;;;;17.95;3.53;;;;;;;;;;5041578;28;20041;-64
2023/12/26 09:55:30;;;;;;;8.75;2.33;;;;;;;;;;5046316;28;20547;-63
2023/12/26 09:57:59;;;;;;;7.97;2.50;;;;;;;;;;5046262;28;20069;-63
2023/12/26 10:00:29;;;;;;;10.23;2.67;;;;;;;;;;5041415;28;20044;-63
2023/12/26 10:02:55;;;;;;;12.15;2.38;;;;;;;;;;5041385;28;20041;-62
2023/12/26 10:05:22;;;;;;;6.22;1.80;;;;;;;;;;5043011;28;20091;-60
2023/12/26 10:07:48;;;;;;;9.45;2.55;;;;;;;;;;5045118;28;20060;-64
2023/12/26 10:10:20;;;;;;;13.30;3.00;;;;;;;;;;5043112;28;20052;-64
2023/12/26 10:12:46;;;;;;;3.85;1.23;;;;;;;;;;5048493;28;20077;-64
2023/12/26 10:15:13;;;;;;;11.38;2.50;;;;;;;;;;5048909;28;20052;-61
2023/12/26 10:17:42;;;;;;;6.82;2.50;;;;;;;;;;5049341;28;20047;-64
2023/12/26 10:20:08;;;;;;;13.80;2.80;;;;;;;;;;5053905;28;20044;-64
2023/12/26 10:22:34;;;;;;;8.13;2.25;;;;;;;;;;5048623;28;20069;-65
2023/12/26 10:25:00;;;;;;;9.68;2.30;;;;;;;;;;5051361;28;20048;-65
2023/12/26 10:27:27;;;;;;;7.13;1.77;;;;;;;;;;5048865;28;20041;-65
2023/12/26 10:29:56;;;;;;;6.95;2.40;;;;;;;;;;5050645;28;20048;-65
2023/12/26 10:32:25;;;;;;;11.60;2.80;;;;;;;;;;5048083;28;20045;-65
2023/12/26 10:34:52;;;;;;;5.72;2.15;;;;;;;;;;5047249;28;20047;-65
2023/12/26 10:37:21;;;;;;;12.20;2.38;;;;;;;;;;5048576;28;20459;-65
2023/12/26 10:39:47;;;;;;;13.18;2.90;;;;;;;;;;5049027;28;20045;-64
2023/12/26 10:42:15;;;;;;;9.73;2.05;;;;;;;;;;5047845;28;20472;-64
2023/12/26 10:45:00;;;;;;;9.80;2.70;;;;;;;;;;5046113;28;20086;-64
2023/12/26 10:47:28;;;;;;;16.52;2.85;;;;;;;;;;5048974;28;20036;-64
2023/12/26 10:49:57;;;;;;;11.02;2.72;;;;;;;;;;5047381;28;20060;-64
2023/12/26 10:52:25;;;;;;;8.10;2.45;;;;;;;;;;5046209;28;20160;-64
2023/12/26 10:54:52;;;;;;;10.80;2.47;;;;;;;;;;5045725;28;20041;-65
2023/12/26 10:57:18;;;;;;;11.13;2.22;;;;;;;;;;5052054;28;20839;-65
2023/12/26 13:54:05;;;;;;;6.05;1.02;;;;;;;;;;5045619;28;20084;-64
2023/12/26 13:56:31;;;;;;;4.68;0.90;;;;;;;;;;5045579;28;20087;-65
2023/12/26 13:58:57;;;;;;;2.55;0.40;;;;;;;;;;5045203;28;20048;-65
2023/12/26 14:01:23;;;;;;;3.70;0.73;;;;;;;;;;5045020;28;20041;-65
2023/12/26 14:03:50;;;;;;;0.75;0.40;;;;;;;;;;5045382;28;20036;-65
2023/12/26 14:06:20;;;;;;;2.50;0.70;;;;;;;;;;5041947;28;20060;-65
2023/12/26 14:08:50;;;;;;;6.70;1.10;;;;;;;;;;5043945;28;20154;-65
2023/12/26 14:11:16;;;;;;;4.43;0.40;;;;;;;;;;5045428;28;20111;-65
2023/12/26 14:13:42;;;;;;;3.80;0.75;;;;;;;;;;5043719;28;20041;-65
2023/12/26 14:16:08;;;;;;;4.07;1.02;;;;;;;;;;5045826;28;20140;-64
2023/12/26 14:18:35;;;;;;;1.38;0.77;;;;;;;;;;5044269;28;20067;-65
2023/12/26 14:21:01;;;;;;;3.10;0.60;;;;;;;;;;5046190;28;20048;-65
2023/12/26 14:23:31;;;;;;;2.85;1.02;;;;;;;;;;5042935;28;20132;-65
2023/12/26 14:25:57;;;;;;;4.25;0.98;;;;;;;;;;5039957;28;20041;-65
2023/12/26 14:28:23;;;;;;;3.13;0.50;;;;;;;;;;5044343;28;20040;-65
2023/12/26 14:30:50;;;;;;;2.53;0.40;;;;;;;;;;5042878;28;20037;-64
2023/12/26 14:33:19;;;;;;;2.50;0.55;;;;;;;;;;5045557;28;20504;-64
2023/12/26 14:35:46;;;;;;;1.15;0.52;;;;;;;;;;5043855;28;20048;-64
2023/12/26 14:38:12;;;;;;;2.58;0.77;;;;;;;;;;5044851;28;20409;-64
2023/12/26 14:40:38;;;;;;;2.22;0.73;;;;;;;;;;5043963;28;20472;-64
2023/12/26 14:43:05;;;;;;;2.17;0.50;;;;;;;;;;5043994;28;20040;-64
2023/12/26 14:45:31;;;;;;;2.08;0.60;;;;;;;;;;5066489;28;20115;-64
2023/12/26 14:47:57;;;;;;;3.13;0.98;;;;;;;;;;5037786;28;20041;-64
2023/12/26 14:50:23;;;;;;;1.02;0.30;;;;;;;;;;5047005;28;20053;-64
2023/12/26 14:52:49;;;;;;;3.22;1.00;;;;;;;;;;5047898;28;20051;-64
2023/12/26 14:55:15;;;;;;;1.00;0.30;;;;;;;;;;5045651;28;20167;-64
2023/12/26 14:57:41;;;;;;;2.00;0.52;;;;;;;;;;5046228;28;20405;-64
2023/12/26 15:00:08;;;;;;;1.63;0.50;;;;;;;;;;5047557;28;20083;-64
2023/12/26 15:02:35;;;;;;;3.67;0.73;;;;;;;;;;5044557;28;20172;-64
2023/12/26 15:05:02;;;;;;;1.52;0.45;;;;;;;;;;5044516;28;20212;-64
2023/12/26 15:07:28;;;;;;;2.65;0.68;;;;;;;;;;5047058;28;20037;-64
2023/12/26 15:09:54;;;;;;;1.80;0.57;;;;;;;;;;5047197;28;20044;-63
2023/12/26 15:12:20;;;;;;;4.57;0.85;;;;;;;;;;5046527;28;20048;-63
2023/12/26 15:14:46;;;;;;;4.40;0.98;;;;;;;;;;5044497;28;20048;-64
2023/12/26 15:17:12;;;;;;;1.15;0.60;;;;;;;;;;5044353;28;20048;-64
2023/12/26 15:19:38;;;;;;;4.03;1.08;;;;;;;;;;5041402;28;20508;-64
2023/12/26 15:22:04;;;;;;;3.58;0.90;;;;;;;;;;5042755;28;20044;-64
2023/12/26 15:24:30;;;;;;;1.73;0.70;;;;;;;;;;5044521;28;20041;-64
2023/12/26 15:26:56;;;;;;;2.92;0.70;;;;;;;;;;5044832;28;20043;-64
2023/12/26 15:29:23;;;;;;;2.47;0.60;;;;;;;;;;5043842;28;20037;-63
2023/12/26 15:31:49;;;;;;;1.60;0.40;;;;;;;;;;5044754;28;20052;-63
2023/12/26 15:34:15;;;;;;;2.00;0.90;;;;;;;;;;5045934;28;20035;-64
2023/12/26 15:36:41;;;;;;;1.98;0.80;;;;;;;;;;5043211;28;20045;-64
2023/12/26 15:39:11;;;;;;;2.35;0.75;;;;;;;;;;5046240;28;20083;-64
2023/12/26 15:41:37;;;;;;;1.88;0.63;;;;;;;;;;5046414;28;20448;-64
2023/12/26 15:44:03;;;;;;;2.47;0.82;;;;;;;;;;5045791;28;20049;-64
2023/12/26 15:46:29;;;;;;;1.98;0.60;;;;;;;;;;5045362;28;20040;-64
2023/12/26 15:48:55;;;;;;;2.85;0.50;;;;;;;;;;5043853;28;20060;-64
2023/12/26 15:51:24;;;;;;;2.17;0.68;;;;;;;;;;5045247;28;20067;-64
2023/12/26 15:53:50;;;;;;;3.17;0.80;;;;;;;;;;5045849;28;20427;-63
2023/12/26 15:56:20;;;;;;;0.98;0.60;;;;;;;;;;5045031;28;20065;-63
2023/12/26 15:58:50;;;;;;;2.65;0.65;;;;;;;;;;5044471;28;20703;-64
2023/12/26 16:01:16;;;;;;;2.97;0.40;;;;;;;;;;5042718;28;20041;-63
2023/12/26 16:03:44;;;;;;;4.53;0.95;;;;;;;;;;5044177;28;20041;-63
2023/12/26 16:06:16;;;;;;;1.65;0.55;;;;;;;;;;5044783;28;20049;-63
2023/12/26 16:08:42;;;;;;;4.53;0.70;;;;;;;;;;5044749;28;20072;-64
2023/12/26 16:11:08;;;;;;;2.25;0.95;;;;;;;;;;5045631;28;20033;-64
2023/12/26 16:13:34;;;;;;;1.83;0.70;;;;;;;;;;5044399;28;20065;-63
2023/12/26 16:16:00;;;;;;;2.30;0.50;;;;;;;;;;5043972;28;20461;-63
2023/12/26 16:18:26;;;;;;;2.75;0.93;;;;;;;;;;5044056;28;20068;-64
2023/12/26 16:20:52;;;;;;;3.53;0.73;;;;;;;;;;5043686;28;20504;-64
2023/12/26 16:23:18;;;;;;;2.70;0.80;;;;;;;;;;5043938;28;20048;-64
2023/12/26 16:25:44;;;;;;;3.15;1.10;;;;;;;;;;5042295;28;20036;-64
2023/12/26 16:28:10;;;;;;;2.40;1.38;;;;;;;;;;5041189;28;20044;-64
2023/12/26 16:30:36;;;;;;;2.60;1.25;;;;;;;;;;5041709;28;20048;-64
2023/12/26 16:33:02;;;;;;;5.70;1.55;;;;;;;;;;5041258;28;20516;-63
2023/12/26 16:35:28;;;;;;;2.83;2.20;;;;;;;;;;5042438;28;20041;-63
2023/12/26 16:37:54;;;;;;;2.15;1.45;;;;;;;;;;5042565;28;20608;-63
2023/12/26 16:40:21;;;;;;;5.07;1.98;;;;;;;;;;5038676;28;20370;-63
2023/12/26 16:42:48;;;;;;;3.00;1.38;;;;;;;;;;5041456;28;20073;-63
2023/12/26 16:45:16;;;;;;;2.20;0.98;;;;;;;;;;5041504;28;20049;-63
2023/12/26 16:47:42;;;;;;;3.97;1.38;;;;;;;;;;5042462;28;20037;-63
2023/12/26 16:50:08;;;;;;;5.85;1.13;;;;;;;;;;5043717;28;20060;-64
2023/12/26 16:52:34;;;;;;;3.53;0.98;;;;;;;;;;5042423;28;20124;-64
2023/12/26 16:55:00;;;;;;;6.20;0.90;;;;;;;;;;5041199;28;20037;-64
2023/12/26 16:57:26;;;;;;;2.47;0.68;;;;;;;;;;5042295;28;20379;-63
2023/12/26 16:59:53;;;;;;;2.83;0.88;;;;;;;;;;5041503;28;20037;-63
2023/12/26 17:02:19;;;;;;;4.22;1.30;;;;;;;;;;5035677;28;20528;-63
2023/12/26 17:04:45;;;;;;;4.70;1.40;;;;;;;;;;5036504;28;20109;-63
2023/12/26 17:07:11;;;;;;;5.03;1.52;;;;;;;;;;5041647;28;20041;-64
2023/12/26 17:09:41;;;;;;;3.47;0.88;;;;;;;;;;5042238;28;20047;-64
2023/12/26 17:12:09;;;;;;;6.45;1.88;;;;;;;;;;5043347;28;20036;-63
2023/12/26 17:14:35;;;;;;;3.35;1.15;;;;;;;;;;5041217;28;20041;-63
2023/12/26 17:17:01;;;;;;;4.63;1.55;;;;;;;;;;5038064;28;20045;-63
2023/12/26 17:19:27;;;;;;;2.08;0.85;;;;;;;;;;5039191;28;20065;-63
2023/12/26 17:21:54;;;;;;;2.78;1.25;;;;;;;;;;5043136;28;20056;-64
2023/12/26 17:24:20;;;;;;;3.25;1.17;;;;;;;;;;5043146;28;20116;-63
2023/12/26 17:26:46;;;;;;;1.40;0.80;;;;;;;;;;5039412;28;20040;-63
2023/12/26 17:29:12;;;;;;;5.72;1.25;;;;;;;;;;5041647;28;20056;-63
2023/12/26 17:31:51;;;;;;;2.35;0.65;;;;;;;;;;5042053;28;20093;-64